createdAt,value
2018-11-13T00:02:04.573Z,100483.98
2018-11-13T00:04:38.934Z,100476.20
2018-11-13T00:07:13.935Z,100478.09
2018-11-13T00:09:47.104Z,100479.97
2018-11-13T00:12:22.269Z,100487.46
2018-11-13T00:14:57.544Z,100492.03
2018-11-13T00:17:31.531Z,100493.38
2018-11-13T00:20:06.832Z,100499.01
2018-11-13T00:22:40.667Z,100501.43
2018-11-13T00:25:16.341Z,100505.97
2018-11-13T00:27:51.644Z,100497.14
2018-11-13T00:30:26.139Z,100505.72
2018-11-13T00:32:58.383Z,100508.92
2018-11-13T00:35:31.988Z,100511.34
2018-11-13T00:38:04.662Z,100510.80
2018-11-13T00:40:37.431Z,100510.55
2018-11-13T00:43:11.562Z,100510.81
2018-11-13T00:45:46.372Z,100510.56
2018-11-13T00:48:19.480Z,100513.75
2018-11-13T00:50:53.004Z,100512.41
2018-11-13T00:53:28.449Z,100518.06
2018-11-13T00:56:00.238Z,100514.05
2018-11-13T00:58:34.679Z,100523.42
2018-11-13T01:01:08.912Z,100514.30
2018-11-13T01:03:43.484Z,100508.41
2018-11-13T01:06:19.031Z,100508.16
2018-11-13T01:08:53.057Z,100507.87
2018-11-13T01:11:26.466Z,100503.59
2018-11-13T01:13:58.700Z,100509.20
2018-11-13T01:16:33.281Z,100513.22
2018-11-13T01:19:05.864Z,100516.16
2018-11-13T01:21:41.775Z,100503.83
2018-11-13T01:24:15.649Z,100496.33
2018-11-13T01:26:49.656Z,100499.27
2018-11-13T01:29:21.675Z,100494.73
2018-11-13T01:31:55.845Z,100517.48
2018-11-13T01:34:30.079Z,100505.19
2018-11-13T01:37:02.345Z,100502.74
2018-11-13T01:39:36.720Z,100504.63
2018-11-13T01:42:09.005Z,100504.08
2018-11-13T01:44:43.958Z,100502.74
2018-11-13T01:47:17.648Z,100503.28
2018-11-13T01:49:50.779Z,100495.78
2018-11-13T01:52:23.951Z,100495.25
2018-11-13T01:55:00.178Z,100492.28
2018-11-13T01:57:34.281Z,100494.99
2018-11-13T02:00:14.845Z,100497.67
2018-11-13T02:02:50.918Z,100499.81
2018-11-13T02:05:27.413Z,100485.88
2018-11-13T02:08:01.229Z,100496.59
2018-11-13T02:10:35.898Z,100486.42
2018-11-13T02:13:10.442Z,100495.79
2018-11-13T02:15:45.068Z,100493.09
2018-11-13T02:18:19.299Z,100497.90
2018-11-13T02:20:52.947Z,100493.09
2018-11-13T02:23:27.601Z,100498.44
2018-11-13T02:26:00.358Z,100506.22
2018-11-13T02:28:35.611Z,100496.56
2018-11-13T02:31:12.010Z,100486.93
2018-11-13T02:33:45.884Z,100489.33
2018-11-13T02:36:21.200Z,100491.48
2018-11-13T02:38:53.666Z,100492.28
2018-11-13T02:41:26.865Z,100482.91
2018-11-13T02:44:02.549Z,100492.00
2018-11-13T02:46:36.747Z,100491.45
2018-11-13T02:49:11.907Z,100479.16
2018-11-13T02:51:44.914Z,100496.30
2018-11-13T02:54:19.660Z,100491.20
2018-11-13T02:56:55.488Z,100492.53
2018-11-13T02:59:31.581Z,100498.69
2018-11-13T03:02:04.047Z,100493.88
2018-11-13T03:04:38.675Z,100494.67
2018-11-13T03:07:11.276Z,100495.76
2018-11-13T03:09:46.403Z,100502.17
2018-11-13T03:12:20.615Z,100494.42
2018-11-13T03:14:54.531Z,100498.44
2018-11-13T03:17:29.007Z,100493.08
2018-11-13T03:20:01.407Z,100488.27
2018-11-13T03:22:33.015Z,100488.81
2018-11-13T03:25:07.450Z,100485.59
2018-11-13T03:27:40.240Z,100487.73
2018-11-13T03:30:21.699Z,100493.34
2018-11-13T03:32:56.312Z,100487.73
2018-11-13T03:35:31.094Z,100487.98
2018-11-13T03:38:03.595Z,100494.97
2018-11-13T03:40:37.618Z,100481.29
2018-11-13T03:43:10.955Z,100484.80
2018-11-13T03:45:46.754Z,100489.86
2018-11-13T03:48:21.161Z,100490.95
2018-11-13T03:50:52.410Z,100495.51
2018-11-13T03:53:27.571Z,100485.05
2018-11-13T03:55:59.871Z,100480.23
2018-11-13T03:58:32.897Z,100477.02
2018-11-13T04:01:06.913Z,100475.67
2018-11-13T04:03:40.562Z,100474.08
2018-11-13T04:06:13.731Z,100485.05
2018-11-13T04:08:47.005Z,100478.89
2018-11-13T04:11:21.122Z,100484.25
2018-11-13T04:13:54.109Z,100473.25
2018-11-13T04:16:28.952Z,100464.42
2018-11-13T04:19:02.828Z,100463.87
2018-11-13T04:21:36.686Z,100461.99
2018-11-13T04:24:11.306Z,100472.70
2018-11-13T04:26:44.947Z,100486.59
2018-11-13T04:29:19.470Z,100473.21
2018-11-13T04:31:53.499Z,100461.16
2018-11-13T04:34:27.371Z,100467.85
2018-11-13T04:36:59.724Z,100465.46
2018-11-13T04:39:32.904Z,100466.80
2018-11-13T04:42:06.796Z,100463.58
2018-11-13T04:44:41.894Z,100461.70
2018-11-13T04:47:17.029Z,100461.70
2018-11-13T04:49:52.447Z,100460.11
2018-11-13T04:52:21.615Z,100444.05
2018-11-13T04:54:50.568Z,100444.56
2018-11-13T04:57:19.635Z,100451.25
2018-11-13T04:59:48.601Z,100449.39
2018-11-13T05:02:19.914Z,100452.08
2018-11-13T05:04:48.811Z,100454.47
2018-11-13T05:07:17.864Z,100451.54
2018-11-13T05:09:46.796Z,100457.14
2018-11-13T05:12:15.927Z,100459.56
2018-11-13T05:14:44.950Z,100470.83
2018-11-13T05:17:13.845Z,100479.39
2018-11-13T05:19:42.918Z,100477.77
2018-11-13T05:22:11.796Z,100479.65
2018-11-13T05:24:40.727Z,100483.91
2018-11-13T05:27:09.682Z,100484.73
2018-11-13T05:29:38.644Z,100498.13
2018-11-13T05:32:07.696Z,100492.48
2018-11-13T05:34:36.617Z,100490.64
2018-11-13T05:37:05.753Z,100486.34
2018-11-13T05:39:34.773Z,100486.88
2018-11-13T05:42:03.720Z,100484.20
2018-11-13T05:44:32.775Z,100485.30
2018-11-13T05:47:01.872Z,100487.98
2018-11-13T05:49:30.855Z,100502.16
2018-11-13T05:51:59.778Z,100511.53
2018-11-13T05:54:28.705Z,100508.31
2018-11-13T05:56:57.655Z,100498.39
2018-11-13T05:59:26.571Z,100499.23
2018-11-13T06:01:55.930Z,100515.83
2018-11-13T06:04:24.983Z,100516.09
2018-11-13T06:06:53.892Z,100529.77
2018-11-13T06:09:22.827Z,100534.84
2018-11-13T06:11:51.790Z,100525.48
2018-11-13T06:14:20.795Z,100524.67
2018-11-13T06:16:49.900Z,100536.72
2018-11-13T06:19:19.160Z,100519.86
2018-11-13T06:21:48.099Z,100532.95
2018-11-13T06:24:17.058Z,100536.98
2018-11-13T06:26:45.981Z,100546.09
2018-11-13T06:29:14.884Z,100548.77
2018-11-13T06:31:44.331Z,100549.03
2018-11-13T06:34:13.685Z,100552.00
2018-11-13T06:36:42.604Z,100554.67
2018-11-13T06:39:13.892Z,100564.84
2018-11-13T06:41:43.984Z,100568.06
2018-11-13T06:44:12.911Z,100569.66
2018-11-13T06:46:42.356Z,100566.73
2018-11-13T06:49:11.594Z,100569.41
2018-11-13T06:51:40.473Z,100574.27
2018-11-13T06:54:20.899Z,100591.64
2018-11-13T06:56:49.879Z,100582.81
2018-11-13T06:59:18.875Z,100578.00
2018-11-13T07:01:47.756Z,100558.45
2018-11-13T07:04:16.673Z,100578.80
2018-11-13T07:06:45.588Z,100569.17
2018-11-13T07:09:14.550Z,100574.27
2018-11-13T07:11:43.469Z,100577.20
2018-11-13T07:14:12.468Z,100579.09
2018-11-13T07:16:41.358Z,100578.00
2018-11-13T07:19:10.365Z,100589.01
2018-11-13T07:21:39.321Z,100593.03
2018-11-13T07:24:08.263Z,100596.29
2018-11-13T07:26:37.186Z,100606.42
2018-11-13T07:29:06.116Z,100606.72
2018-11-13T07:31:35.103Z,100608.34
2018-11-13T07:34:04.027Z,100605.89
2018-11-13T07:36:32.959Z,100601.33
2018-11-13T07:39:01.880Z,100597.85
2018-11-13T07:41:30.827Z,100603.20
2018-11-13T07:43:59.756Z,100605.63
2018-11-13T07:46:28.730Z,100637.53
2018-11-13T07:48:57.609Z,100632.42
2018-11-13T07:51:26.510Z,100628.98
2018-11-13T07:53:55.476Z,100637.03
2018-11-13T07:56:24.373Z,100638.08
2018-11-13T07:58:53.313Z,100642.69
2018-11-13T08:01:22.305Z,100624.98
2018-11-13T08:03:51.295Z,100625.52
2018-11-13T08:06:20.251Z,100629.83
2018-11-13T08:08:49.176Z,100630.33
2018-11-13T08:11:18.236Z,100625.77
2018-11-13T08:13:47.204Z,100626.06
2018-11-13T08:16:16.145Z,100621.24
2018-11-13T08:18:45.222Z,100620.70
2018-11-13T08:21:14.140Z,100633.05
2018-11-13T08:23:42.997Z,100635.98
2018-11-13T08:26:12.042Z,100632.77
2018-11-13T08:28:40.962Z,100634.09
2018-11-13T08:31:09.908Z,100641.34
2018-11-13T08:33:38.804Z,100638.38
2018-11-13T08:36:08.399Z,100643.73
2018-11-13T08:38:37.292Z,100640.55
2018-11-13T08:41:07.001Z,100640.84
2018-11-13T08:43:35.897Z,100651.02
2018-11-13T08:46:05.008Z,100655.86
2018-11-13T08:48:34.555Z,100664.45
2018-11-13T08:51:03.515Z,100672.75
2018-11-13T08:53:32.492Z,100681.88
2018-11-13T08:56:01.390Z,100678.91
2018-11-13T08:58:30.325Z,100688.56
2018-11-13T09:00:59.271Z,100692.07
2018-11-13T09:03:28.192Z,100686.70
2018-11-13T09:05:57.356Z,100682.14
2018-11-13T09:08:26.265Z,100692.34
2018-11-13T09:10:55.171Z,100706.55
2018-11-13T09:13:24.078Z,100704.39
2018-11-13T09:15:53.071Z,100701.17
2018-11-13T09:18:22.129Z,100702.80
2018-11-13T09:20:51.087Z,100689.64
2018-11-13T09:23:20.053Z,100687.22
2018-11-13T09:25:48.982Z,100695.55
2018-11-13T09:28:17.949Z,100695.55
2018-11-13T09:30:47.303Z,100706.53
2018-11-13T09:33:15.939Z,100709.76
2018-11-13T09:35:44.873Z,100720.48
2018-11-13T09:38:13.795Z,100726.90
2018-11-13T09:40:42.706Z,100729.86
2018-11-13T09:43:11.620Z,100732.25
2018-11-13T09:45:40.636Z,100750.47
2018-11-13T09:48:09.608Z,100751.55
2018-11-13T09:50:38.531Z,100751.27
2018-11-13T09:53:07.426Z,100738.41
2018-11-13T09:55:36.356Z,100735.18
2018-11-13T09:58:05.630Z,100739.50
2018-11-13T10:00:34.641Z,100742.17
2018-11-13T10:03:04.152Z,100743.77
2018-11-13T10:05:32.625Z,100750.45
2018-11-13T10:08:01.452Z,100746.98
2018-11-13T10:10:30.418Z,100749.11
2018-11-13T10:12:59.344Z,100745.63
2018-11-13T10:15:29.600Z,100746.41
2018-11-13T10:17:59.173Z,100745.33
2018-11-13T10:20:27.979Z,100757.94
2018-11-13T10:22:57.803Z,100760.88
2018-11-13T10:25:26.711Z,100762.22
2018-11-13T10:27:55.657Z,100757.39
2018-11-13T10:30:25.084Z,100767.86
2018-11-13T10:32:54.507Z,100780.48
2018-11-13T10:35:24.702Z,100778.30
2018-11-13T10:37:53.636Z,100774.29
2018-11-13T10:40:23.150Z,100778.05
2018-11-13T10:42:52.527Z,100774.28
2018-11-13T10:45:24.796Z,100770.00
2018-11-13T10:47:53.787Z,100774.27
2018-11-13T10:50:23.875Z,100774.29
2018-11-13T10:52:52.774Z,100769.20
2018-11-13T10:55:21.722Z,100771.88
2018-11-13T10:57:50.715Z,100773.73
2018-11-13T11:00:25.138Z,100779.92
2018-11-13T11:02:59.605Z,100781.51
2018-11-13T11:05:29.055Z,100773.77
2018-11-13T11:07:58.429Z,100769.76
2018-11-13T11:10:27.542Z,100773.79
2018-11-13T11:12:56.547Z,100777.83
2018-11-13T11:15:25.443Z,100771.94
2018-11-13T11:17:54.492Z,100767.95
2018-11-13T11:20:23.420Z,100760.70
2018-11-13T11:22:52.560Z,100751.33
2018-11-13T11:25:21.576Z,100762.34
2018-11-13T11:27:50.420Z,100763.44
2018-11-13T11:30:19.296Z,100769.06
2018-11-13T11:32:48.360Z,100772.03
2018-11-13T11:35:17.315Z,100771.48
2018-11-13T11:37:46.383Z,100777.11
2018-11-13T11:40:15.302Z,100773.38
2018-11-13T11:42:44.188Z,100774.17
2018-11-13T11:45:14.189Z,100758.07
2018-11-13T11:47:43.569Z,100758.61
2018-11-13T11:50:13.480Z,100769.63
2018-11-13T11:52:42.700Z,100762.91
2018-11-13T11:55:12.332Z,100764.24
2018-11-13T11:57:41.249Z,100754.58
2018-11-13T12:00:16.088Z,100763.44
2018-11-13T12:02:45.010Z,100760.23
2018-11-13T12:05:18.730Z,100773.36
2018-11-13T12:07:47.751Z,100780.08
2018-11-13T12:10:16.686Z,100781.96
2018-11-13T12:12:45.625Z,100787.08
2018-11-13T12:15:14.691Z,100791.36
2018-11-13T12:17:47.484Z,100793.50
2018-11-13T12:20:21.252Z,100793.24
2018-11-13T12:22:52.012Z,100786.27
2018-11-13T12:25:21.217Z,100771.48
2018-11-13T12:27:50.166Z,100763.43
2018-11-13T12:30:23.657Z,100783.84
2018-11-13T12:32:53.088Z,100794.58
2018-11-13T12:35:24.718Z,100804.24
2018-11-13T12:37:55.821Z,100795.09
2018-11-13T12:40:27.793Z,100801.30
2018-11-13T12:42:56.765Z,100802.89
2018-11-13T12:45:25.740Z,100804.49
2018-11-13T12:47:54.713Z,100810.41
2018-11-13T12:50:23.641Z,100809.08
2018-11-13T12:52:52.551Z,100802.92
2018-11-13T12:55:22.801Z,100802.89
2018-11-13T12:57:51.774Z,100814.19
2018-11-13T13:00:25.938Z,100819.56
2018-11-13T13:02:54.875Z,100828.41
2018-11-13T13:05:23.913Z,100829.50
2018-11-13T13:07:54.855Z,100833.78
2018-11-13T13:10:23.956Z,100831.10
2018-11-13T13:12:52.875Z,100823.59
2018-11-13T13:15:21.793Z,100830.02
2018-11-13T13:17:54.221Z,100833.50
2018-11-13T13:20:26.775Z,100833.78
2018-11-13T13:22:57.724Z,100839.41
2018-11-13T13:25:28.830Z,100836.73
2018-11-13T13:27:59.976Z,100835.92
2018-11-13T13:30:32.427Z,100849.34
2018-11-13T13:33:04.335Z,100864.91
2018-11-13T13:35:45.079Z,100860.87
2018-11-13T13:38:14.020Z,100863.27
2018-11-13T13:40:44.082Z,100858.43
2018-11-13T13:43:13.705Z,100861.36
2018-11-13T13:45:43.296Z,100857.34
2018-11-13T13:48:13.182Z,100855.98
2018-11-13T13:50:44.860Z,100852.22
2018-11-13T13:53:14.868Z,100848.19
2018-11-13T13:55:44.082Z,100857.83
2018-11-13T13:58:16.944Z,100856.48
2018-11-13T14:00:49.777Z,100854.89
2018-11-13T14:03:18.825Z,100853.80
2018-11-13T14:05:48.069Z,100854.10
2018-11-13T14:08:20.404Z,100853.30
2018-11-13T14:10:49.415Z,100860.52
2018-11-13T14:13:18.343Z,100863.75
2018-11-13T14:15:49.926Z,100867.53
2018-11-13T14:18:19.023Z,100865.39
2018-11-13T14:20:48.064Z,100871.56
2018-11-13T14:23:16.917Z,100872.34
2018-11-13T14:25:45.893Z,100872.89
2018-11-13T14:28:14.795Z,100868.63
2018-11-13T14:30:43.798Z,100875.88
2018-11-13T14:33:15.887Z,100878.02
2018-11-13T14:35:47.030Z,100882.30
2018-11-13T14:38:18.283Z,100883.93
2018-11-13T14:40:48.777Z,100891.14
2018-11-13T14:43:19.909Z,100894.89
2018-11-13T14:45:50.745Z,100903.75
2018-11-13T14:48:22.852Z,100906.44
2018-11-13T14:50:54.407Z,100904.56
2018-11-13T14:53:26.509Z,100908.31
2018-11-13T14:55:57.718Z,100914.17
2018-11-13T14:58:28.961Z,100917.92
2018-11-13T15:01:00.814Z,100910.92
2018-11-13T15:03:31.898Z,100918.72
2018-11-13T15:06:03.358Z,100923.30
2018-11-13T15:08:32.244Z,100925.13
2018-11-13T15:11:01.184Z,100928.34
2018-11-13T15:13:34.785Z,100922.42
2018-11-13T15:16:04.341Z,100928.58
2018-11-13T15:18:34.096Z,100935.80
2018-11-13T15:21:06.278Z,100931.52
2018-11-13T15:23:38.480Z,100934.71
2018-11-13T15:26:08.216Z,100930.95
2018-11-13T15:28:37.132Z,100943.51
2018-11-13T15:31:06.254Z,100940.33
2018-11-13T15:33:37.620Z,100947.28
2018-11-13T15:36:09.785Z,100949.95
2018-11-13T15:38:38.888Z,100949.39
2018-11-13T15:41:08.009Z,100963.56
2018-11-13T15:43:38.861Z,100971.55
2018-11-13T15:46:09.316Z,100973.36
2018-11-13T15:48:41.434Z,100972.00
2018-11-13T15:51:10.672Z,100981.61
2018-11-13T15:53:43.049Z,100983.95
2018-11-13T15:56:13.757Z,100993.02
2018-11-13T15:58:44.840Z,100997.61
2018-11-13T16:01:16.618Z,100998.78
2018-11-13T16:03:48.758Z,101009.33
2018-11-13T16:06:21.161Z,101019.27
2018-11-13T16:08:52.712Z,101019.28
2018-11-13T16:11:21.727Z,101018.48
2018-11-13T16:13:53.359Z,101024.66
2018-11-13T16:16:24.594Z,101017.44
2018-11-13T16:18:56.900Z,101026.96
2018-11-13T16:21:26.036Z,101024.82
2018-11-13T16:23:54.985Z,101026.22
2018-11-13T16:26:25.455Z,101024.59
2018-11-13T16:28:57.622Z,101029.63
2018-11-13T16:31:29.883Z,101028.25
2018-11-13T16:34:02.113Z,101006.45
2018-11-13T16:36:31.232Z,101000.43
2018-11-13T16:39:00.083Z,101002.25
2018-11-13T16:41:29.095Z,101012.12
2018-11-13T16:43:57.987Z,101012.84
2018-11-13T16:46:29.221Z,101016.01
2018-11-13T16:49:00.533Z,101028.01
2018-11-13T16:51:31.399Z,101021.75
2018-11-13T16:54:04.438Z,101026.55
2018-11-13T16:56:41.249Z,101017.05
2018-11-13T16:59:10.392Z,101027.88
2018-11-13T17:01:39.952Z,101028.53
2018-11-13T17:04:10.613Z,101032.73
2018-11-13T17:06:39.807Z,101045.71
2018-11-13T17:09:13.712Z,101051.20
2018-11-13T17:11:42.778Z,101043.71
2018-11-13T17:14:12.614Z,101047.36
2018-11-13T17:16:41.476Z,101050.30
2018-11-13T17:19:10.393Z,101048.89
2018-11-13T17:21:39.379Z,101040.87
2018-11-13T17:24:11.590Z,101046.35
2018-11-13T17:26:43.031Z,101043.54
2018-11-13T17:29:13.485Z,101055.28
2018-11-13T17:31:45.314Z,101056.45
2018-11-13T17:34:14.238Z,101057.18
2018-11-13T17:36:43.155Z,101058.65
2018-11-13T17:39:13.720Z,101058.65
2018-11-13T17:41:42.826Z,101067.83
2018-11-13T17:44:11.830Z,101064.34
2018-11-13T17:46:43.009Z,101066.91
2018-11-13T17:49:11.888Z,101068.94
2018-11-13T17:51:40.795Z,101068.67
2018-11-13T17:54:09.712Z,101075.88
2018-11-13T17:56:38.711Z,101072.06
2018-11-13T17:59:07.706Z,101075.01
2018-11-13T18:01:36.604Z,101076.34
2018-11-13T18:04:05.764Z,101082.98
2018-11-13T18:06:34.709Z,101088.02
2018-11-13T18:09:04.500Z,101088.13
2018-11-13T18:11:33.440Z,101083.31
2018-11-13T18:14:02.661Z,101090.04
2018-11-13T18:16:34.265Z,101089.78
2018-11-13T18:19:03.139Z,101090.23
2018-11-13T18:21:32.126Z,101099.23
2018-11-13T18:24:00.993Z,101102.13
2018-11-13T18:26:29.880Z,101098.84
2018-11-13T18:29:01.011Z,101104.95
2018-11-13T18:31:33.794Z,101108.77
2018-11-13T18:34:02.988Z,101112.70
2018-11-13T18:36:31.911Z,101112.03
2018-11-13T18:39:00.999Z,101119.45
2018-11-13T18:41:29.837Z,101132.66
2018-11-13T18:44:00.625Z,101140.80
2018-11-13T18:46:32.487Z,101154.09
2018-11-13T18:49:01.402Z,101174.07
2018-11-13T18:51:32.741Z,101166.80
2018-11-13T18:54:04.300Z,101175.33
2018-11-13T18:56:36.251Z,101172.59
2018-11-13T18:59:08.802Z,101176.87
2018-11-13T19:01:37.925Z,101162.52
2018-11-13T19:04:06.874Z,101169.17
2018-11-13T19:06:35.786Z,101154.01
2018-11-13T19:09:08.164Z,101160.02
2018-11-13T19:11:38.740Z,101169.26
2018-11-13T19:14:07.771Z,101177.47
2018-11-13T19:16:36.875Z,101174.95
2018-11-13T19:19:05.624Z,101183.73
2018-11-13T19:21:37.787Z,101181.52
2018-11-13T19:24:14.883Z,101184.14
2018-11-13T19:26:43.837Z,101178.22
2018-11-13T19:29:12.786Z,101180.62
2018-11-13T19:31:41.723Z,101183.00
2018-11-13T19:34:10.658Z,101182.42
2018-11-13T19:36:39.744Z,101179.75
2018-11-13T19:39:10.431Z,101181.53
2018-11-13T19:41:41.803Z,101182.73
2018-11-13T19:44:10.690Z,101182.34
2018-11-13T19:46:42.340Z,101184.08
2018-11-13T19:49:11.313Z,101186.09
2018-11-13T19:51:44.723Z,101192.24
2018-11-13T19:54:15.561Z,101197.98
2018-11-13T19:56:44.468Z,101203.71
2018-11-13T19:59:13.680Z,101203.56
2018-11-13T20:01:42.299Z,101205.70
2018-11-13T20:04:14.937Z,101200.00
2018-11-13T20:06:45.756Z,101197.94
2018-11-13T20:09:18.270Z,101202.59
2018-11-13T20:11:47.720Z,101201.91
2018-11-13T20:14:16.630Z,101203.41
2018-11-13T20:16:45.883Z,101212.11
2018-11-13T20:19:15.093Z,101212.70
2018-11-13T20:21:46.864Z,101213.17
2018-11-13T20:24:16.843Z,101221.34
2018-11-13T20:26:45.771Z,101223.37
2018-11-13T20:29:18.258Z,101224.00
2018-11-13T20:31:50.096Z,101237.53
2018-11-13T20:34:21.698Z,101227.88
2018-11-13T20:36:51.693Z,101235.98
2018-11-13T20:39:21.192Z,101231.83
2018-11-13T20:41:51.404Z,101234.31
2018-11-13T20:44:20.354Z,101228.80
2018-11-13T20:46:50.373Z,101230.91
2018-11-13T20:49:19.364Z,101229.27
2018-11-13T20:51:48.308Z,101234.55
2018-11-13T20:54:19.413Z,101232.75
2018-11-13T20:56:48.648Z,101230.52
2018-11-13T20:59:17.590Z,101231.94
2018-11-13T21:01:46.587Z,101239.93
2018-11-13T21:04:15.416Z,101237.52
2018-11-13T21:06:44.421Z,101243.80
2018-11-13T21:09:13.350Z,101240.80
2018-11-13T21:11:42.300Z,101241.42
2018-11-13T21:14:13.216Z,101239.52
2018-11-13T21:16:42.318Z,101244.11
2018-11-13T21:19:11.342Z,101244.63
2018-11-13T21:21:43.496Z,101247.45
2018-11-13T21:24:15.449Z,101244.63
2018-11-13T21:26:44.409Z,101241.72
2018-11-13T21:29:16.574Z,101246.59
2018-11-13T21:31:48.305Z,101248.25
2018-11-13T21:34:20.093Z,101256.84
2018-11-13T21:36:51.191Z,101250.00
2018-11-13T21:39:20.485Z,101247.63
2018-11-13T21:41:49.623Z,101253.67
2018-11-13T21:44:19.030Z,101249.79
2018-11-13T21:46:47.755Z,101258.28
2018-11-13T21:49:19.191Z,101255.13
2018-11-13T21:51:48.456Z,101263.41
2018-11-13T21:54:17.456Z,101259.41
2018-11-13T21:56:46.639Z,101273.16
2018-11-13T21:59:15.737Z,101274.59
2018-11-13T22:01:47.569Z,101283.34
2018-11-13T22:04:16.773Z,101278.63
2018-11-13T22:06:49.451Z,101278.59
2018-11-13T22:09:18.498Z,101280.60
2018-11-13T22:11:48.216Z,101278.77
2018-11-13T22:14:19.026Z,101288.17
2018-11-13T22:16:50.795Z,101290.70
2018-11-13T22:19:19.856Z,101288.47
2018-11-13T22:21:48.849Z,101296.78
2018-11-13T22:24:20.322Z,101295.53
2018-11-13T22:26:52.341Z,101293.39
2018-11-13T22:29:21.593Z,101300.86
2018-11-13T22:31:50.525Z,101299.80
2018-11-13T22:34:19.736Z,101300.55
2018-11-13T22:36:48.718Z,101300.92
2018-11-13T22:39:17.906Z,101299.74
2018-11-13T22:41:46.823Z,101306.19
2018-11-13T22:44:16.897Z,101301.66
2018-11-13T22:46:45.921Z,101298.66
2018-11-13T22:49:17.669Z,101301.08
2018-11-13T22:51:47.056Z,101302.41
2018-11-13T22:54:18.301Z,101308.98
2018-11-13T22:56:47.256Z,101309.52
2018-11-13T22:59:16.193Z,101304.92
2018-11-13T23:01:48.184Z,101311.06
2018-11-13T23:04:20.370Z,101312.92
2018-11-13T23:06:52.112Z,101310.86
2018-11-13T23:09:24.027Z,101310.99
2018-11-13T23:11:57.250Z,101313.38
2018-11-13T23:14:28.304Z,101312.33
2018-11-13T23:17:01.918Z,101314.78
2018-11-13T23:19:34.476Z,101313.64
2018-11-13T23:22:07.194Z,101317.05
2018-11-13T23:24:36.211Z,101316.77
2018-11-13T23:27:07.415Z,101325.17
2018-11-13T23:29:36.336Z,101321.49
2018-11-13T23:32:07.115Z,101326.76
2018-11-13T23:34:36.167Z,101332.02
2018-11-13T23:37:05.274Z,101330.97
2018-11-13T23:39:34.407Z,101332.89
2018-11-13T23:42:03.381Z,101329.85
2018-11-13T23:44:32.405Z,101325.06
2018-11-13T23:47:01.515Z,101328.47
2018-11-13T23:49:30.434Z,101329.37
2018-11-13T23:51:59.283Z,101328.92
2018-11-13T23:54:28.196Z,101328.72
2018-11-13T23:56:57.175Z,101337.90
2018-11-13T23:59:26.085Z,101344.11
